Time;durP1;ratioP1;P1;durP2;ratioP2;P2;SDS_P1;SDS_P2;PMS_P1;PMS_P2;Temp;Humidity;BMP_temperature;BMP_pressure;BME280_temperature;BME280_humidity;BME280_pressure;Samples;Min_cycle;Max_cycle;Signal;HPM_P1;HPM_P2
2020/12/21 00:02:18;;;;;;;20.08;12.10;;;;;;;5.57;70.62;101997.50;5012689;28;20432;-73
2020/12/21 00:04:43;;;;;;;20.30;12.35;;;;;;;5.55;70.92;101993.91;5029506;28;20038;-68
2020/12/21 00:07:09;;;;;;;20.27;12.73;;;;;;;5.59;70.45;101997.63;5027727;28;20042;-73
2020/12/21 00:09:35;;;;;;;24.95;14.18;;;;;;;5.63;69.81;101995.44;5029263;28;20146;-71
2020/12/21 00:12:00;;;;;;;25.05;13.32;;;;;;;5.67;68.88;101997.47;5029716;28;20036;-70
2020/12/21 00:14:26;;;;;;;32.90;17.25;;;;;;;5.70;69.79;102008.75;5028958;28;20044;-71
2020/12/21 00:16:53;;;;;;;23.55;13.60;;;;;;;5.67;69.84;102001.72;5029596;28;20041;-71
2020/12/21 00:19:21;;;;;;;20.45;13.15;;;;;;;5.62;70.27;101998.78;5029038;28;20033;-72
2020/12/21 00:21:52;;;;;;;20.40;11.32;;;;;;;5.47;70.62;101998.41;5047986;28;20376;-72
2020/12/21 00:24:18;;;;;;;20.67;12.40;;;;;;;5.33;70.74;102004.97;5051429;28;20083;-72
2020/12/21 00:26:49;;;;;;;19.75;12.40;;;;;;;5.30;71.28;102002.13;5051417;28;20024;-72
2020/12/21 00:29:15;;;;;;;21.95;11.90;;;;;;;5.04;71.39;101969.25;5032349;28;20052;-72
2020/12/21 00:31:41;;;;;;;23.52;12.52;;;;;;;5.15;71.71;102000.88;5056954;28;20063;-73
2020/12/21 00:34:08;;;;;;;21.80;12.52;;;;;;;5.14;71.86;101992.28;5034153;28;20036;-73
2020/12/21 00:36:36;;;;;;;27.30;13.82;;;;;;;5.15;72.44;101998.31;5032475;28;20029;-70
2020/12/21 00:39:04;;;;;;;34.37;18.97;;;;;;;5.14;72.18;102012.75;5050424;28;20037;-72
2020/12/21 00:41:29;;;;;;;26.33;14.23;;;;;;;5.05;72.33;101998.28;5051101;28;20354;-71
2020/12/21 00:43:55;;;;;;;19.58;12.13;;;;;;;5.10;72.57;102002.16;5051131;28;20561;-70
2020/12/21 00:46:26;;;;;;;17.88;11.60;;;;;;;4.94;72.24;101970.13;5049780;28;20044;-71
2020/12/21 00:48:52;;;;;;;18.75;11.45;;;;;;;5.21;71.93;101992.78;5057608;28;20028;-73
2020/12/21 00:51:19;;;;;;;16.17;10.70;;;;;;;5.16;72.01;101985.63;5033691;28;20155;-72
2020/12/21 00:53:46;;;;;;;17.10;10.98;;;;;;;5.20;72.08;101991.91;5051295;28;20036;-70
2020/12/21 00:56:12;;;;;;;15.02;9.40;;;;;;;5.14;71.93;101982.03;5049032;28;20025;-75
2020/12/21 00:58:40;;;;;;;16.25;9.85;;;;;;;5.09;71.76;101977.31;5049566;28;20025;-70
2020/12/21 01:01:15;;;;;;;16.23;9.27;;;;;;;5.02;71.79;101974.25;5034220;28;20020;-70
2020/12/21 01:03:40;;;;;;;19.92;11.45;;;;;;;4.93;72.57;101970.00;5050462;28;20036;-71
2020/12/21 01:06:06;;;;;;;20.25;10.38;;;;;;;4.86;72.50;101989.09;5032340;28;20029;-71
2020/12/21 01:08:33;;;;;;;18.25;11.15;;;;;;;4.95;72.28;101983.84;5050372;28;20032;-70
2020/12/21 01:10:59;;;;;;;18.13;9.20;;;;;;;4.98;71.64;101979.84;5051048;28;20553;-73
2020/12/21 01:13:25;;;;;;;16.58;11.40;;;;;;;4.93;72.00;101976.00;5051186;28;20108;-67
2020/12/21 01:15:50;;;;;;;17.55;10.02;;;;;;;4.96;72.18;101977.94;5053579;28;20029;-72
2020/12/21 01:18:16;;;;;;;18.77;10.57;;;;;;;4.89;72.83;101981.66;5051400;28;20107;-67
2020/12/21 01:20:41;;;;;;;31.63;14.60;;;;;;;4.79;73.61;101990.22;5050474;28;20373;-70
2020/12/21 01:23:07;;;;;;;27.15;15.68;;;;;;;4.77;74.27;101989.19;5054546;28;20029;-68
2020/12/21 01:25:33;;;;;;;21.75;12.57;;;;;;;4.70;74.95;101977.53;5054628;28;20107;-70
2020/12/21 01:27:58;;;;;;;20.77;13.00;;;;;;;4.70;74.91;101986.88;5054989;28;20029;-72
2020/12/21 01:30:24;;;;;;;18.88;11.05;;;;;;;4.35;75.54;101944.72;5061201;28;20031;-71
2020/12/21 01:32:50;;;;;;;20.80;11.55;;;;;;;4.54;75.46;101977.88;5065884;28;20035;-72
2020/12/21 01:35:15;;;;;;;19.77;12.32;;;;;;;4.56;75.80;101977.13;5068567;28;20052;-69
2020/12/21 01:37:41;;;;;;;19.17;11.23;;;;;;;4.43;76.55;101983.75;5049725;28;20425;-71
2020/12/21 01:40:06;;;;;;;19.17;11.13;;;;;;;4.46;76.57;101970.31;5053155;28;20465;-71
2020/12/21 01:42:32;;;;;;;20.00;11.40;;;;;;;4.48;76.61;101976.47;5052362;28;20033;-70
2020/12/21 01:44:57;;;;;;;23.65;13.25;;;;;;;4.19;76.89;101934.84;5055196;28;20025;-73
2020/12/21 01:47:23;;;;;;;24.17;13.60;;;;;;;4.28;77.50;101952.63;5054884;28;20056;-73
2020/12/21 01:49:50;;;;;;;20.88;13.02;;;;;;;4.45;77.58;101986.41;5056153;28;20035;-72
2020/12/21 01:52:17;;;;;;;21.85;12.98;;;;;;;4.37;77.43;101973.91;5061969;28;20479;-72
2020/12/21 01:54:48;;;;;;;21.30;12.75;;;;;;;4.42;77.23;101970.84;5023209;28;20049;-73
2020/12/21 01:57:14;;;;;;;23.10;13.20;;;;;;;4.37;77.38;101966.22;5039393;28;20558;-73
2020/12/21 01:59:40;;;;;;;22.15;12.82;;;;;;;4.45;77.47;101971.06;5039887;28;20045;-74
2020/12/21 02:02:06;;;;;;;19.80;11.55;;;;;;;4.51;76.95;101979.28;5039657;28;20432;-74
2020/12/21 02:04:31;;;;;;;21.50;12.85;;;;;;;4.41;77.30;101980.19;5039569;28;20033;-71
2020/12/21 02:07:00;;;;;;;22.25;12.45;;;;;;;4.32;77.61;101979.38;5032709;28;20072;-72
2020/12/21 02:09:26;;;;;;;42.40;20.75;;;;;;;4.17;78.33;101948.25;5029684;28;20037;-75
2020/12/21 02:11:51;;;;;;;23.85;13.25;;;;;;;4.17;77.81;101940.59;5032690;28;20436;-71
2020/12/21 02:14:17;;;;;;;22.55;13.90;;;;;;;4.25;77.80;101965.16;5034585;28;20061;-73
2020/12/21 02:16:42;;;;;;;21.80;11.77;;;;;;;4.23;78.07;101963.25;5038581;28;20036;-69
2020/12/21 02:19:08;;;;;;;20.98;13.18;;;;;;;4.30;78.42;101973.22;5043369;28;20117;-72
2020/12/21 02:21:33;;;;;;;23.05;13.10;;;;;;;4.27;77.87;101952.50;5032188;28;20476;-74
2020/12/21 02:23:59;;;;;;;19.90;11.77;;;;;;;4.28;77.81;101967.97;5030757;28;20099;-71
2020/12/21 02:26:24;;;;;;;20.85;12.23;;;;;;;4.23;77.85;101970.91;5030250;28;20085;-73
2020/12/21 02:28:51;;;;;;;21.15;11.70;;;;;;;4.18;78.54;101966.28;5046329;28;20060;-73
2020/12/21 02:31:17;;;;;;;26.52;13.95;;;;;;;4.10;79.40;101964.72;5064557;28;20036;-72
2020/12/21 02:33:43;;;;;;;22.38;13.70;;;;;;;4.14;79.18;101965.91;5046415;28;20037;-72
2020/12/21 02:36:08;;;;;;;22.98;13.95;;;;;;;4.16;79.32;101961.78;5062549;28;20037;-71
2020/12/21 02:38:34;;;;;;;20.67;12.00;;;;;;;4.11;78.81;101966.53;5056877;28;20057;-71
2020/12/21 02:40:59;;;;;;;24.58;12.32;;;;;;;4.05;79.05;101964.31;5054447;28;20436;-73
2020/12/21 02:43:25;;;;;;;24.70;13.88;;;;;;;3.87;79.51;101940.59;5037451;28;20029;-73
2020/12/21 02:45:50;;;;;;;22.90;13.40;;;;;;;3.88;79.54;101916.84;5053715;28;20029;-71
2020/12/21 02:48:16;;;;;;;20.75;12.75;;;;;;;3.93;79.50;101927.47;5057166;28;20020;-71
2020/12/21 02:50:42;;;;;;;23.17;14.27;;;;;;;4.05;79.48;101950.66;5062925;28;20029;-71
2020/12/21 02:53:07;;;;;;;22.45;12.38;;;;;;;4.05;79.54;101951.53;5056309;28;20044;-72
2020/12/21 02:55:33;;;;;;;21.08;11.43;;;;;;;4.11;79.29;101950.28;5057728;28;20446;-71
2020/12/21 02:57:58;;;;;;;18.85;10.75;;;;;;;3.85;79.24;101920.78;5052818;28;20070;-72
2020/12/21 03:00:24;;;;;;;21.60;11.80;;;;;;;4.03;79.16;101953.06;5054839;28;20025;-71
2020/12/21 03:02:49;;;;;;;21.20;11.25;;;;;;;3.92;78.93;101951.22;5055908;28;20482;-73
2020/12/21 03:05:15;;;;;;;22.33;12.48;;;;;;;3.91;79.70;101946.88;5036417;28;20029;-72
2020/12/21 03:07:40;;;;;;;22.10;11.98;;;;;;;3.91;80.04;101959.66;5054876;28;20020;-71
2020/12/21 03:10:05;;;;;;;21.60;10.90;;;;;;;3.70;79.29;101905.00;5053958;28;20032;-71
2020/12/21 03:12:31;;;;;;;19.92;11.27;;;;;;;4.00;79.41;101949.34;5054472;28;20021;-73
2020/12/21 03:14:56;;;;;;;19.85;11.10;;;;;;;4.02;78.79;101945.28;5052913;28;20032;-73
2020/12/21 03:17:22;;;;;;;18.17;10.00;;;;;;;3.86;78.55;101920.03;5052094;28;20028;-75
2020/12/21 03:19:47;;;;;;;19.75;10.50;;;;;;;3.98;78.66;101945.78;5071920;28;20016;-74
2020/12/21 03:22:13;;;;;;;21.13;12.63;;;;;;;3.88;79.22;101933.84;5072137;28;20466;-71
2020/12/21 03:24:39;;;;;;;24.35;12.70;;;;;;;3.91;79.30;101946.00;5071999;28;20032;-74
2020/12/21 03:27:04;;;;;;;19.80;12.95;;;;;;;3.79;78.85;101926.28;5072141;28;20036;-73
2020/12/21 03:29:30;;;;;;;20.60;10.90;;;;;;;3.78;79.13;101938.91;5072151;28;20024;-74
2020/12/21 03:31:55;;;;;;;25.80;17.83;;;;;;;3.75;79.45;101928.41;5072128;28;20031;-75
2020/12/21 03:34:21;;;;;;;18.20;10.40;;;;;;;3.75;79.51;101937.00;5072082;28;20032;-73
2020/12/21 03:36:46;;;;;;;18.23;10.15;;;;;;;3.74;79.79;101937.75;5071625;28;20021;-74
2020/12/21 03:39:12;;;;;;;18.63;9.77;;;;;;;3.78;79.98;101942.34;5054363;28;20115;-71
2020/12/21 03:41:38;;;;;;;19.17;10.60;;;;;;;3.87;79.75;101938.03;5034170;28;20043;-72
2020/12/21 03:44:04;;;;;;;20.65;10.50;;;;;;;3.82;79.63;101951.19;5032476;28;20038;-74
2020/12/21 03:46:29;;;;;;;29.92;17.85;;;;;;;3.90;80.06;101945.09;5022377;28;20091;-74
2020/12/21 03:48:55;;;;;;;23.55;11.98;;;;;;;3.89;79.60;101939.09;5031579;28;20025;-74
2020/12/21 03:51:20;;;;;;;21.65;10.82;;;;;;;3.85;79.74;101948.88;5032846;28;20435;-73
2020/12/21 03:53:46;;;;;;;22.67;11.02;;;;;;;3.87;79.93;101934.59;5016294;28;20103;-75
2020/12/21 03:56:11;;;;;;;20.25;10.32;;;;;;;3.95;79.34;101943.84;5033638;28;20017;-73
2020/12/21 03:58:37;;;;;;;47.08;24.67;;;;;;;3.87;79.18;101939.72;5028520;28;20061;-73
2020/12/21 04:01:02;;;;;;;22.92;11.75;;;;;;;4.01;79.24;101952.06;5047616;28;20029;-78
2020/12/21 04:03:28;;;;;;;23.48;12.82;;;;;;;4.08;78.78;101942.38;5049177;28;20063;-75
2020/12/21 04:05:54;;;;;;;23.50;15.07;;;;;;;4.10;78.63;101936.63;5051348;28;20078;-74
2020/12/21 04:08:19;;;;;;;19.45;10.35;;;;;;;3.93;78.44;101917.25;5051146;28;20028;-73
2020/12/21 04:10:46;;;;;;;16.65;9.63;;;;;;;4.17;77.78;101936.34;5046613;28;20460;-74
2020/12/21 04:13:12;;;;;;;18.77;9.80;;;;;;;4.16;77.96;101954.13;5045590;28;20498;-74
2020/12/21 04:15:38;;;;;;;31.40;16.10;;;;;;;4.15;78.10;101958.34;5044164;28;20504;-73
2020/12/21 04:18:04;;;;;;;18.33;10.27;;;;;;;4.15;77.74;101957.44;5037149;28;20030;-73
2020/12/21 04:20:29;;;;;;;19.05;9.38;;;;;;;3.95;78.26;101925.03;5048162;28;20039;-74
2020/12/21 04:22:55;;;;;;;21.63;11.93;;;;;;;4.10;78.20;101949.41;5033282;28;20037;-72
2020/12/21 04:25:20;;;;;;;25.70;12.43;;;;;;;4.12;78.35;101952.97;5028759;28;20128;-74
2020/12/21 04:27:46;;;;;;;16.48;9.90;;;;;;;3.81;78.26;101917.06;5034082;28;20021;-73
2020/12/21 04:30:12;;;;;;;18.25;10.88;;;;;;;3.84;77.91;101914.78;5033154;28;20506;-73
2020/12/21 04:32:37;;;;;;;21.65;10.57;;;;;;;4.09;78.64;101949.25;5033197;28;20075;-72
2020/12/21 04:35:03;;;;;;;18.58;9.55;;;;;;;4.11;77.72;101953.75;5033023;28;20494;-74
2020/12/21 04:37:29;;;;;;;22.38;13.05;;;;;;;4.11;77.79;101955.38;5035116;28;20053;-72
2020/12/21 04:39:54;;;;;;;16.85;9.27;;;;;;;3.96;77.99;101945.66;5051493;28;20029;-73
2020/12/21 04:42:24;;;;;;;18.42;9.30;;;;;;;4.00;78.10;101946.78;5052336;28;20090;-73
2020/12/21 04:44:50;;;;;;;16.60;8.88;;;;;;;3.83;78.23;101938.53;5050831;28;20017;-72
2020/12/21 04:47:16;;;;;;;57.08;27.85;;;;;;;3.94;78.44;101957.38;5035498;28;20033;-74
2020/12/21 04:49:43;;;;;;;70.70;36.67;;;;;;;3.96;78.35;101955.88;5051862;28;20104;-74
2020/12/21 04:52:11;;;;;;;207.30;90.70;;;;;;;3.98;78.00;101953.44;5051706;28;20115;-73
2020/12/21 04:54:37;;;;;;;70.00;35.47;;;;;;;4.02;78.12;101952.94;5050637;28;20017;-74
2020/12/21 04:57:02;;;;;;;278.83;116.80;;;;;;;3.97;77.60;101949.09;5050244;28;20036;-74
2020/12/21 04:59:28;;;;;;;125.38;57.45;;;;;;;4.00;77.23;101949.34;5058066;28;20450;-73
2020/12/21 05:01:55;;;;;;;68.18;38.92;;;;;;;4.11;76.96;101955.38;5053239;28;20074;-76
2020/12/21 05:04:22;;;;;;;40.25;24.52;;;;;;;4.02;76.90;101943.59;5050420;28;20028;-73
2020/12/21 05:06:56;;;;;;;37.90;23.00;;;;;;;4.09;76.44;101952.72;5053143;28;20564;-71
2020/12/21 05:09:23;;;;;;;27.08;17.50;;;;;;;3.94;76.76;101938.56;5063465;28;20028;-71
2020/12/21 05:12:05;;;;;;;20.85;13.10;;;;;;;4.06;76.95;101954.97;5070833;28;20098;-71
2020/12/21 05:14:32;;;;;;;20.17;9.63;;;;;;;4.07;77.04;101958.47;5070512;28;20086;-76
2020/12/21 05:17:15;;;;;;;21.35;11.43;;;;;;;3.76;77.04;101917.44;5070066;28;20059;-75
2020/12/21 05:19:41;;;;;;;25.20;11.15;;;;;;;3.96;76.91;101958.44;5052683;28;20036;-73
2020/12/21 05:22:13;;;;;;;18.60;9.63;;;;;;;3.95;77.34;101960.81;5055231;28;20501;-74
2020/12/21 05:24:39;;;;;;;20.15;12.95;;;;;;;3.99;76.92;101956.13;5052133;28;20123;-74
2020/12/21 05:27:15;;;;;;;22.90;10.50;;;;;;;3.99;77.04;101963.78;5014200;28;20502;-72
2020/12/21 05:29:41;;;;;;;20.35;11.25;;;;;;;4.05;76.64;101966.00;5020127;28;20196;-72
2020/12/21 05:32:11;;;;;;;24.55;13.45;;;;;;;4.08;76.87;101963.69;5029345;28;20492;-70
2020/12/21 05:34:37;;;;;;;32.47;18.15;;;;;;;4.18;76.15;101960.28;5028212;28;20066;-70
2020/12/21 05:37:10;;;;;;;26.25;14.00;;;;;;;4.25;75.90;101970.28;5019520;28;20037;-71
2020/12/21 05:39:52;;;;;;;25.58;12.13;;;;;;;4.36;75.56;101976.31;5014847;28;20422;-72
2020/12/21 05:42:18;;;;;;;23.38;10.63;;;;;;;4.50;74.77;101969.84;5028948;28;20040;-72
2020/12/21 05:44:53;;;;;;;26.45;10.73;;;;;;;4.47;74.71;101977.22;5025983;28;20053;-72
2020/12/21 05:47:19;;;;;;;24.17;12.32;;;;;;;4.36;74.95;101967.00;5030807;28;20030;-71
2020/12/21 05:49:53;;;;;;;16.08;9.15;;;;;;;4.43;75.27;101982.84;5030016;28;20124;-72
2020/12/21 05:52:27;;;;;;;25.90;10.95;;;;;;;4.11;75.35;101934.94;5028608;28;20460;-71
2020/12/21 05:54:53;;;;;;;24.08;10.27;;;;;;;4.26;75.58;101960.94;5029632;28;20064;-72
2020/12/21 05:57:19;;;;;;;23.85;9.55;;;;;;;4.45;75.85;101987.34;5030618;28;20095;-72
2020/12/21 05:59:49;;;;;;;25.13;10.73;;;;;;;4.32;75.94;101975.13;5030896;28;20034;-72
2020/12/21 06:02:18;;;;;;;;;;;;;;;4.33;75.94;101978.59;5031384;28;20029;-71
2020/12/21 06:04:49;;;;;;;30.40;12.15;;;;;;;4.24;76.24;101981.25;5044161;28;20011;-72
2020/12/21 06:07:21;;;;;;;36.78;11.73;;;;;;;4.20;76.62;101985.22;5071999;28;20086;-73
2020/12/21 06:09:49;;;;;;;36.30;13.65;;;;;;;4.18;76.45;101991.84;5054353;28;20058;-72
2020/12/21 06:12:21;;;;;;;23.95;11.50;;;;;;;4.18;77.10;101990.94;5071956;28;20024;-72
2020/12/21 06:14:50;;;;;;;32.13;12.02;;;;;;;4.13;77.12;101998.22;5072755;28;20056;-72
2020/12/21 06:17:16;;;;;;;26.30;11.32;;;;;;;4.10;77.30;102005.63;5072341;28;20070;-73
2020/12/21 06:19:41;;;;;;;20.63;11.30;;;;;;;4.02;77.72;101992.16;5070121;28;20031;-72
2020/12/21 06:22:07;;;;;;;16.88;10.65;;;;;;;4.03;77.76;101993.06;5070304;28;20029;-72
2020/12/21 06:24:38;;;;;;;19.02;10.02;;;;;;;4.03;77.84;102001.63;5071380;28;20032;-71
2020/12/21 06:27:14;;;;;;;22.35;15.68;;;;;;;3.60;77.52;101933.97;5071975;28;20028;-72
2020/12/21 06:29:40;;;;;;;18.55;10.18;;;;;;;4.00;78.02;102003.00;5072685;28;20433;-72
2020/12/21 06:32:07;;;;;;;21.67;13.82;;;;;;;3.95;78.02;102002.63;5072627;28;20059;-72
2020/12/21 06:34:36;;;;;;;18.17;10.82;;;;;;;3.91;77.60;102003.09;5054730;28;20077;-72
2020/12/21 06:37:04;;;;;;;30.60;12.35;;;;;;;3.99;77.78;102001.22;5070228;28;20056;-71
2020/12/21 06:39:31;;;;;;;35.92;14.77;;;;;;;4.03;78.14;101995.63;5043038;28;20101;-72
2020/12/21 06:42:13;;;;;;;43.92;15.73;;;;;;;4.13;77.75;102003.31;5010908;28;20496;-72
2020/12/21 06:44:39;;;;;;;48.92;25.08;;;;;;;3.75;77.37;101920.75;5013499;28;20069;-72
2020/12/21 06:47:07;;;;;;;53.97;30.85;;;;;;;4.20;77.04;101989.44;5012199;28;20049;-74
2020/12/21 06:49:33;;;;;;;40.97;19.58;;;;;;;4.23;76.32;101981.13;5011171;28;20462;-72
2020/12/21 06:51:59;;;;;;;37.05;14.35;;;;;;;4.44;75.29;102005.13;5005585;28;20041;-72
2020/12/21 06:54:24;;;;;;;27.73;13.10;;;;;;;4.30;75.88;101966.47;5012086;28;20528;-73
2020/12/21 06:56:50;;;;;;;29.75;12.25;;;;;;;4.61;75.01;102007.47;5009492;28;20052;-72
2020/12/21 06:59:18;;;;;;;25.52;10.88;;;;;;;4.59;74.33;101991.06;5027311;28;20030;-73
2020/12/21 07:01:51;;;;;;;28.33;12.93;;;;;;;4.78;77.50;101993.53;5014648;28;20034;-74
2020/12/21 07:04:21;;;;;;;20.77;10.07;;;;;;;4.88;75.34;101984.09;5016081;28;20041;-74
2020/12/21 07:06:47;;;;;;;21.77;10.75;;;;;;;4.84;72.41;101995.72;5025034;28;20072;-76
2020/12/21 07:09:15;;;;;;;15.00;8.48;;;;;;;4.88;70.74;101999.44;5024113;28;20026;-76
2020/12/21 07:11:42;;;;;;;22.15;9.60;;;;;;;4.84;71.48;102006.84;5009979;28;20373;-75
2020/12/21 07:14:12;;;;;;;20.58;9.13;;;;;;;4.83;71.42;102002.47;5011211;28;20492;-76
2020/12/21 07:16:38;;;;;;;17.70;8.85;;;;;;;4.96;71.14;102007.00;5011438;28;20022;-75
2020/12/21 07:19:03;;;;;;;18.63;9.23;;;;;;;4.98;70.71;102015.69;5010903;28;20029;-75
2020/12/21 07:21:30;;;;;;;19.63;9.15;;;;;;;5.08;71.18;102007.13;5010844;28;20542;-75
2020/12/21 07:23:58;;;;;;;24.17;10.40;;;;;;;5.10;71.20;102007.28;5006533;28;20038;-75
2020/12/21 07:26:24;;;;;;;62.90;24.65;;;;;;;5.08;71.50;101998.56;4993304;28;20042;-75
2020/12/21 07:28:50;;;;;;;61.35;24.48;;;;;;;5.07;71.66;102007.91;4994531;28;20025;-75
2020/12/21 07:31:20;;;;;;;19.70;8.93;;;;;;;5.03;70.64;101998.16;4992696;28;20405;-76
2020/12/21 07:33:58;;;;;;;17.27;7.82;;;;;;;5.08;70.55;102012.25;4994486;28;20088;-75
2020/12/21 07:36:29;;;;;;;27.05;12.57;;;;;;;5.02;70.73;102004.03;5024588;28;20411;-74
2020/12/21 07:39:12;;;;;;;18.92;9.80;;;;;;;5.07;70.64;102010.47;5008013;28;20535;-75
2020/12/21 07:41:59;;;;;;;17.00;8.23;;;;;;;5.05;69.54;102013.63;5011516;28;20033;-75
2020/12/21 07:44:33;;;;;;;16.17;9.30;;;;;;;5.08;70.17;102006.25;5015069;28;20053;-74
2020/12/21 07:47:15;;;;;;;15.57;8.32;;;;;;;5.04;70.23;102006.75;5010225;28;20057;-74
2020/12/21 07:49:42;;;;;;;18.40;7.95;;;;;;;5.08;70.74;102008.78;5009614;28;20128;-75
2020/12/21 07:52:09;;;;;;;23.17;11.32;;;;;;;5.13;71.72;102007.50;5013154;28;20025;-74
2020/12/21 07:54:42;;;;;;;19.85;9.32;;;;;;;5.23;71.39;102012.63;5013794;28;20049;-74
2020/12/21 07:57:10;;;;;;;37.05;21.42;;;;;;;5.09;71.92;101985.88;5013286;28;20109;-74
2020/12/21 07:59:36;;;;;;;17.38;10.38;;;;;;;5.11;72.27;102012.50;5011358;28;20025;-75
2020/12/21 08:02:06;;;;;;;16.85;9.52;;;;;;;5.14;72.21;102007.63;5011422;28;20026;-75
2020/12/21 08:04:32;;;;;;;17.42;11.20;;;;;;;5.09;72.17;102008.03;5011242;28;20057;-75
2020/12/21 08:07:10;;;;;;;24.85;13.10;;;;;;;4.98;73.32;102007.13;5015608;28;20029;-75
2020/12/21 08:09:37;;;;;;;34.47;21.77;;;;;;;5.07;72.95;102007.00;5013216;28;20500;-74
2020/12/21 08:12:13;;;;;;;19.35;10.57;;;;;;;5.17;72.94;102010.47;5028104;28;20141;-74
2020/12/21 08:14:39;;;;;;;17.38;9.68;;;;;;;5.13;72.52;102003.28;5030218;28;20081;-74
2020/12/21 08:17:18;;;;;;;18.65;11.40;;;;;;;5.16;72.27;102005.22;5030078;28;20057;-73
2020/12/21 08:19:51;;;;;;;18.65;10.10;;;;;;;5.20;72.13;102004.72;5031119;28;20031;-74
2020/12/21 08:22:28;;;;;;;18.23;10.23;;;;;;;5.17;72.29;102010.47;5029963;28;20029;-74
2020/12/21 08:25:09;;;;;;;17.80;9.20;;;;;;;5.25;72.79;102003.41;5031376;28;20072;-74
2020/12/21 08:27:36;;;;;;;20.05;13.13;;;;;;;5.35;72.11;101999.97;5005452;28;20054;-75
2020/12/21 08:30:19;;;;;;;16.02;11.15;;;;;;;5.40;72.51;102008.91;5023936;28;20120;-74
2020/12/21 08:32:45;;;;;;;19.60;10.93;;;;;;;5.34;71.40;102001.59;5028522;28;20052;-74
2020/12/21 08:35:11;;;;;;;28.70;19.05;;;;;;;5.33;71.59;101997.28;5009470;28;20022;-73
2020/12/21 08:37:38;;;;;;;46.65;16.02;;;;;;;5.34;70.56;102008.41;5013157;28;20046;-76
2020/12/21 08:40:09;;;;;;;30.95;10.80;;;;;;;5.26;70.81;102000.09;5012204;28;20029;-74
2020/12/21 08:42:35;;;;;;;32.47;15.63;;;;;;;5.21;70.93;101987.66;5011851;28;20033;-72
2020/12/21 08:45:00;;;;;;;20.35;11.00;;;;;;;5.13;71.83;101989.59;5011949;28;20029;-74
2020/12/21 08:47:25;;;;;;;21.88;11.15;;;;;;;5.12;73.18;101998.03;5021189;28;20022;-74
2020/12/21 08:49:51;;;;;;;31.02;13.57;;;;;;;5.04;73.03;101979.47;5029802;28;20032;-74
2020/12/21 08:52:16;;;;;;;18.45;10.18;;;;;;;5.07;72.66;101991.63;5020921;28;20037;-74
2020/12/21 08:54:42;;;;;;;18.15;11.93;;;;;;;5.16;72.38;101992.44;5026040;28;20021;-74
2020/12/21 08:57:09;;;;;;;18.48;10.82;;;;;;;5.10;71.81;101982.56;5029527;28;20021;-74
2020/12/21 08:59:37;;;;;;;19.02;11.48;;;;;;;5.14;71.67;101988.81;5030359;28;20022;-74
2020/12/21 09:02:03;;;;;;;26.38;16.98;;;;;;;5.25;71.55;101988.06;5033298;28;20022;-74
2020/12/21 09:04:29;;;;;;;19.95;11.77;;;;;;;5.27;72.79;101991.66;5034161;28;20029;-74
2020/12/21 09:06:54;;;;;;;39.67;24.90;;;;;;;5.25;72.13;101984.63;5033950;28;20048;-74
2020/12/21 09:09:22;;;;;;;31.83;23.05;;;;;;;5.37;72.82;101980.50;5033849;28;20093;-74
2020/12/21 09:11:54;;;;;;;29.23;13.52;;;;;;;5.34;71.37;101976.00;5033623;28;20021;-74
2020/12/21 09:14:24;;;;;;;32.30;16.70;;;;;;;5.38;71.67;101976.25;5026251;28;20091;-74
2020/12/21 09:16:51;;;;;;;15.93;11.55;;;;;;;5.34;71.74;101958.06;5033348;28;20029;-74
2020/12/21 09:19:17;;;;;;;18.30;10.10;;;;;;;5.35;71.95;101965.00;5023237;28;20069;-74
2020/12/21 09:21:43;;;;;;;17.73;11.07;;;;;;;5.47;72.29;101967.66;5020897;28;20029;-75
2020/12/21 09:24:09;;;;;;;20.10;10.85;;;;;;;5.58;71.86;101970.19;5015160;28;20484;-79
2020/12/21 09:26:35;;;;;;;22.88;12.82;;;;;;;5.62;71.63;101955.22;5020415;28;20049;-79
2020/12/21 09:29:00;;;;;;;15.57;10.25;;;;;;;5.70;70.81;101954.94;5014149;28;20120;-79
2020/12/21 09:31:25;;;;;;;15.88;9.13;;;;;;;5.65;70.96;101962.25;5017656;28;20061;-78
2020/12/21 09:33:51;;;;;;;22.02;10.82;;;;;;;5.62;70.54;101955.22;5028761;28;20030;-76
2020/12/21 09:36:18;;;;;;;28.63;12.02;;;;;;;5.40;71.75;101923.50;5025560;28;20119;-74
2020/12/21 09:38:50;;;;;;;25.77;15.27;;;;;;;5.49;71.88;101954.97;5016828;28;20049;-75
2020/12/21 09:41:18;;;;;;;26.17;12.75;;;;;;;5.50;71.02;101952.53;5014407;28;20099;-74
2020/12/21 09:43:49;;;;;;;16.52;10.63;;;;;;;5.46;71.76;101953.06;5017607;28;20030;-71
2020/12/21 09:46:22;;;;;;;38.85;13.68;;;;;;;5.43;71.40;101949.34;5026764;28;20033;-74
2020/12/21 09:48:49;;;;;;;16.73;9.55;;;;;;;5.43;71.69;101957.03;5025977;28;20022;-73
2020/12/21 09:51:14;;;;;;;31.92;17.45;;;;;;;5.55;71.70;101952.03;5016372;28;20029;-74
2020/12/21 09:53:40;;;;;;;19.50;10.85;;;;;;;5.61;72.71;101953.41;5015611;28;20495;-74
2020/12/21 09:56:09;;;;;;;18.38;11.85;;;;;;;5.75;72.26;101938.25;5013601;28;20033;-74
2020/12/21 09:58:34;;;;;;;20.58;14.85;;;;;;;5.60;71.60;101905.50;5013428;28;20021;-74
2020/12/21 10:00:59;;;;;;;18.60;10.95;;;;;;;5.83;71.42;101942.31;5013251;28;20026;-74
2020/12/21 10:03:25;;;;;;;17.75;10.77;;;;;;;5.90;71.52;101930.91;5016254;28;20025;-74
2020/12/21 10:05:50;;;;;;;15.15;8.75;;;;;;;5.68;71.00;101921.50;5030152;28;20033;-74
2020/12/21 10:08:16;;;;;;;15.18;9.18;;;;;;;5.65;71.43;101932.38;5027669;28;20472;-74
2020/12/21 10:10:41;;;;;;;14.45;9.65;;;;;;;5.71;72.09;101928.53;5012491;28;20412;-74
2020/12/21 10:13:06;;;;;;;14.68;8.52;;;;;;;5.67;71.02;101933.41;5028377;28;20034;-75
2020/12/21 10:15:32;;;;;;;14.23;9.45;;;;;;;5.52;72.65;101924.50;5014481;28;20450;-73
2020/12/21 10:17:57;;;;;;;15.52;9.90;;;;;;;5.62;72.19;101921.00;5032324;28;20539;-75
2020/12/21 10:20:23;;;;;;;417.92;189.40;;;;;;;5.70;71.96;101921.63;5027326;28;20034;-75
2020/12/21 10:22:48;;;;;;;22.48;12.40;;;;;;;5.44;72.52;101923.88;5013096;28;20041;-74
2020/12/21 10:25:14;;;;;;;14.82;9.00;;;;;;;5.35;71.74;101888.16;5028983;28;20446;-74
2020/12/21 10:27:39;;;;;;;21.58;13.35;;;;;;;5.63;71.48;101917.66;5011250;28;20026;-74
2020/12/21 10:30:05;;;;;;;16.10;9.82;;;;;;;5.66;71.35;101910.25;5032397;28;20021;-73
2020/12/21 10:32:50;;;;;;;17.27;10.57;;;;;;;5.86;71.63;101914.38;4995898;28;20116;-81
2020/12/21 10:35:15;;;;;;;14.77;10.55;;;;;;;5.92;71.66;101908.84;4991189;28;20496;-79
2020/12/21 10:37:41;;;;;;;21.73;13.00;;;;;;;5.96;71.13;101911.78;4996828;28;20096;-82
2020/12/21 10:40:07;;;;;;;21.05;14.63;;;;;;;5.89;71.30;101909.47;4996666;28;20072;-81
2020/12/21 10:42:32;;;;;;;19.63;13.50;;;;;;;5.92;71.60;101907.19;5002071;28;20581;-80
2020/12/21 10:44:59;;;;;;;15.13;8.95;;;;;;;5.85;71.86;101906.59;5002236;28;20093;-79
2020/12/21 10:47:25;;;;;;;15.55;9.82;;;;;;;5.89;70.58;101906.03;4997595;28;20042;-75
2020/12/21 10:49:50;;;;;;;16.00;10.55;;;;;;;5.99;71.01;101909.50;4990615;28;20069;-77
2020/12/21 10:52:16;;;;;;;15.43;9.90;;;;;;;5.98;70.81;101907.69;4989232;28;20054;-78
2020/12/21 10:54:41;;;;;;;14.77;10.15;;;;;;;6.08;71.13;101901.63;4992124;28;20077;-78
2020/12/21 10:57:07;;;;;;;16.67;10.80;;;;;;;6.12;70.00;101897.63;4991946;28;20026;-78
2020/12/21 10:59:33;;;;;;;15.48;9.50;;;;;;;6.17;69.90;101896.31;4992728;28;20038;-76
2020/12/21 11:01:59;;;;;;;14.85;10.57;;;;;;;5.97;69.40;101903.31;4991727;28;20096;-79
2020/12/21 11:04:24;;;;;;;17.17;10.43;;;;;;;6.05;69.64;101892.81;5010374;28;20510;-79
2020/12/21 11:06:50;;;;;;;32.38;20.30;;;;;;;6.15;69.78;101885.91;5015116;28;20017;-77
2020/12/21 11:09:16;;;;;;;34.15;20.50;;;;;;;6.20;69.46;101882.84;5026660;28;20459;-77
2020/12/21 11:11:41;;;;;;;21.20;14.40;;;;;;;6.09;69.97;101880.34;5026102;28;20030;-77
2020/12/21 11:14:08;;;;;;;21.23;12.27;;;;;;;6.02;69.53;101888.34;5012339;28;20033;-79
2020/12/21 11:16:34;;;;;;;16.88;10.07;;;;;;;6.07;69.21;101894.72;5012139;28;20075;-77
2020/12/21 11:18:59;;;;;;;16.60;10.18;;;;;;;5.96;70.12;101900.63;5015619;28;20018;-77
2020/12/21 11:21:25;;;;;;;14.48;9.60;;;;;;;5.49;70.56;101873.91;5015802;28;20030;-80